Temp: 14.7°C   Baro: 1019.3mb
  Wind: 0.0mph   Dir: NNW (342°)
  Rain: 0.2mm (0.0mm/hr)
  Solar: 297W/m2  Hum: 72%
 
Bath Spa Weather Station Historical Data
Daily Summary for December 03, 2019 Units:  Both    English   Metric
Daily Weekly Monthly Yearly Custom
  High: Low: Average:
Temperature: 49.8 °F /  9.9 °C 34.5 °F /  1.4 °C 41.4 °F /  5.2 °C
Dew Point: 41.5 °F /  5.3 °C 32.2 °F /  0.1 °C 37 °F /  2.8 °C
Humidity: 93% 63.4% 85%
Wind Speed: 6.9mph /  11.1km/h - 0.8mph /  1.3km/h
Wind Gust: 15mph /  24.1km/h - -
Wind- - WSW
Pressure: 30.46 in /  1031.4 hPa 30.20 in /  1022.6 hPa -
Precipitation: 0.00 in /  0 mm    
Historical Graphs
 
 
Tabular Data for December 03, 2019
Time Temperature Dew Point Pressure Wind Wind Speed Wind Gust Humidity Rainfall Rate (Hourly) solar
00:04 36.7 °F /  2.6 °C 34.5 °F /  1.4 °C 30.46in /  1031.4hPa Calm     92% 0.00in /  0mm 0 W/m2
00:09 36.7 °F /  2.6 °C 34.5 °F /  1.4 °C 30.46in /  1031.4hPa Calm     92% 0.00in /  0mm 0 W/m2
00:14 36.9 °F /  2.7 °C 34.7 °F /  1.5 °C 30.46in /  1031.4hPa Calm     92% 0.00in /  0mm 0 W/m2
00:19 36.9 °F /  2.7 °C 34.8 °F /  1.6 °C 30.46in /  1031.4hPa Calm     92% 0.00in /  0mm 0 W/m2
00:24 37 °F /  2.8 °C 34.8 °F /  1.6 °C 30.46in /  1031.4hPa Calm     92% 0.00in /  0mm 0 W/m2
00:29 37 °F /  2.8 °C 34.9 °F /  1.6 °C 30.46in /  1031.4hPa Calm     92% 0.00in /  0mm 0 W/m2
00:34 37 °F /  2.8 °C 34.8 °F /  1.6 °C 30.46in /  1031.4hPa Calm     92% 0.00in /  0mm 0 W/m2
00:39 37 °F /  2.8 °C 34.8 °F /  1.6 °C 30.45in /  1031hPa Calm     92% 0.00in /  0mm 0 W/m2
00:44 36.9 °F /  2.7 °C 34.8 °F /  1.6 °C 30.45in /  1031hPa Calm     92% 0.00in /  0mm 0 W/m2
00:49 37 °F /  2.8 °C 34.9 °F /  1.6 °C 30.45in /  1031hPa Calm     92% 0.00in /  0mm 0 W/m2
00:54 37 °F /  2.8 °C 34.9 °F /  1.6 °C 30.45in /  1031hPa Calm     92% 0.00in /  0mm 0 W/m2
00:59 37 °F /  2.8 °C 34.9 °F /  1.6 °C 30.45in /  1031hPa Calm     92% 0.00in /  0mm 0 W/m2
01:04 37 °F /  2.8 °C 34.9 °F /  1.6 °C 30.45in /  1031hPa Calm     92% 0.00in /  0mm 0 W/m2
01:09 37.2 °F /  2.9 °C 35.1 °F /  1.7 °C 30.45in /  1031hPa Calm     92% 0.00in /  0mm 0 W/m2
01:14 37.2 °F /  2.9 °C 35.2 °F /  1.8 °C 30.45in /  1031hPa Calm     92.2% 0.00in /  0mm 0 W/m2
01:19 37.2 °F /  2.9 °C 35.1 °F /  1.7 °C 30.45in /  1031hPa Calm     92% 0.00in /  0mm 0 W/m2
01:24 37.2 °F /  2.9 °C 35.2 °F /  1.8 °C 30.45in /  1031hPa Calm     92.2% 0.00in /  0mm 0 W/m2
01:29 37.3 °F /  2.9 °C 35.1 °F /  1.7 °C 30.44in /  1030.7hPa Calm     92% 0.00in /  0mm 0 W/m2
01:34 37.2 °F /  2.9 °C 35.1 °F /  1.7 °C 30.45in /  1031hPa Calm     92% 0.00in /  0mm 0 W/m2
01:39 37.4 °F /  3 °C 35.4 °F /  1.9 °C 30.45in /  1031hPa Calm     92.6% 0.00in /  0mm 0 W/m2
01:44 37.5 °F /  3.1 °C 35.3 °F /  1.8 °C 30.45in /  1031hPa Calm     92% 0.00in /  0mm 0 W/m2
01:49 37.4 °F /  3 °C 35.4 °F /  1.9 °C 30.45in /  1031hPa Calm     92.4% 0.00in /  0mm 0 W/m2
01:54 37.4 °F /  3 °C 35.2 °F /  1.8 °C 30.45in /  1031hPa Calm     92.2% 0.00in /  0mm 0 W/m2
01:59 37.4 °F /  3 °C 35.2 °F /  1.8 °C 30.44in /  1030.7hPa Calm     92% 0.00in /  0mm 0 W/m2
02:04 37.5 °F /  3.1 °C 35.4 °F /  1.9 °C 30.44in /  1030.7hPa Calm     92.2% 0.00in /  0mm 0 W/m2
02:09 37.6 °F /  3.1 °C 35.4 °F /  1.9 °C 30.44in /  1030.7hPa Calm     92% 0.00in /  0mm 0 W/m2
02:14 37.6 °F /  3.1 °C 35.4 °F /  1.9 °C 30.44in /  1030.7hPa Calm     92% 0.00in /  0mm 0 W/m2
02:19 37.7 °F /  3.2 °C 35.5 °F /  1.9 °C 30.44in /  1030.7hPa Calm     92% 0.00in /  0mm 0 W/m2
02:24 37.6 °F /  3.1 °C 35.4 °F /  1.9 °C 30.43in /  1030.4hPa Calm     92% 0.00in /  0mm 0 W/m2
02:29 37.4 °F /  3 °C 35.2 °F /  1.8 °C 30.43in /  1030.4hPa Calm     92% 0.00in /  0mm 0 W/m2
02:34 37.4 °F /  3 °C 35.2 °F /  1.8 °C 30.43in /  1030.4hPa Calm     92% 0.00in /  0mm 0 W/m2
02:39 37.5 °F /  3.1 °C 35.3 °F /  1.8 °C 30.43in /  1030.4hPa Calm     92% 0.00in /  0mm 0 W/m2
02:44 37.6 °F /  3.1 °C 35.4 °F /  1.9 °C 30.42in /  1030hPa Calm     92% 0.00in /  0mm 0 W/m2
02:49 37.6 °F /  3.1 °C 35.4 °F /  1.9 °C 30.42in /  1030hPa Calm     92% 0.00in /  0mm 0 W/m2
02:54 37.8 °F /  3.2 °C 35.6 °F /  2 °C 30.42in /  1030hPa Calm     92% 0.00in /  0mm 0 W/m2
02:59 37.8 °F /  3.2 °C 35.8 °F /  2.1 °C 30.42in /  1030hPa Calm     92.4% 0.00in /  0mm 0 W/m2
03:04 37.9 °F /  3.3 °C 36.1 °F /  2.3 °C 30.42in /  1030hPa Calm     93% 0.00in /  0mm 0 W/m2
03:09 37.9 °F /  3.3 °C 36.1 °F /  2.3 °C 30.42in /  1030hPa Calm     93% 0.00in /  0mm 0 W/m2
03:14 37.9 °F /  3.3 °C 36.1 °F /  2.3 °C 30.42in /  1030hPa Calm     93% 0.00in /  0mm 0 W/m2
03:19 37.9 °F /  3.3 °C 36.1 °F /  2.3 °C 30.42in /  1030hPa Calm     93% 0.00in /  0mm 0 W/m2
03:24 37.9 °F /  3.3 °C 36.1 °F /  2.3 °C 30.42in /  1030hPa Calm     93% 0.00in /  0mm 0 W/m2
03:29 38.1 °F /  3.4 °C 36.3 °F /  2.4 °C 30.42in /  1030hPa Calm     93% 0.00in /  0mm 0 W/m2
03:34 38.1 °F /  3.4 °C 36.3 °F /  2.4 °C 30.42in /  1030hPa Calm     93% 0.00in /  0mm 0 W/m2
03:39 38.3 °F /  3.5 °C 36.4 °F /  2.4 °C 30.41in /  1029.7hPa Calm     92.8% 0.00in /  0mm 0 W/m2
03:44 38.3 °F /  3.5 °C 36.4 °F /  2.4 °C 30.41in /  1029.7hPa Calm     92.6% 0.00in /  0mm 0 W/m2
03:49 38.3 °F /  3.5 °C 36.2 °F /  2.3 °C 30.41in /  1029.7hPa Calm     92.3% 0.00in /  0mm 0 W/m2
03:54 38.4 °F /  3.6 °C 36.3 °F /  2.4 °C 30.41in /  1029.7hPa Calm     92.2% 0.00in /  0mm 0 W/m2
03:59 38.4 °F /  3.6 °C 36.2 °F /  2.3 °C 30.41in /  1029.7hPa Calm     92% 0.00in /  0mm 0 W/m2
04:04 38.5 °F /  3.6 °C 36.5 °F /  2.5 °C 30.41in /  1029.7hPa Calm     92.6% 0.00in /  0mm 0 W/m2
04:09 38.5 °F /  3.6 °C 36.6 °F /  2.6 °C 30.41in /  1029.7hPa Calm     92.8% 0.00in /  0mm 0 W/m2
04:14 38.6 °F /  3.7 °C 36.6 °F /  2.6 °C 30.41in /  1029.7hPa Calm     92.6% 0.00in /  0mm 0 W/m2
04:19 38.7 °F /  3.7 °C 36.9 °F /  2.7 °C 30.41in /  1029.7hPa Calm     93% 0.00in /  0mm 0 W/m2
04:24 38.7 °F /  3.7 °C 36.9 °F /  2.7 °C 30.40in /  1029.3hPa Calm     93% 0.00in /  0mm 0 W/m2
04:28 38.7 °F /  3.7 °C 36.9 °F /  2.7 °C 30.40in /  1029.3hPa Calm     93% 0.00in /  0mm 0 W/m2
04:34 38.7 °F /  3.7 °C 36.9 °F /  2.7 °C 30.40in /  1029.3hPa Calm     93% 0.00in /  0mm 0 W/m2
04:39 38.7 °F /  3.7 °C 36.9 °F /  2.7 °C 30.40in /  1029.3hPa Calm     93% 0.00in /  0mm 0 W/m2
04:44 38.7 °F /  3.7 °C 36.9 °F /  2.7 °C 30.40in /  1029.3hPa Calm     93% 0.00in /  0mm 0 W/m2
04:49 38.8 °F /  3.8 °C 37 °F /  2.8 °C 30.40in /  1029.3hPa Calm     93% 0.00in /  0mm 0 W/m2
04:54 38.8 °F /  3.8 °C 37 °F /  2.8 °C 30.39in /  1029hPa Calm     93% 0.00in /  0mm 0 W/m2
04:59 38.8 °F /  3.8 °C 37 °F /  2.8 °C 30.39in /  1029hPa Calm     93% 0.00in /  0mm 0 W/m2
05:04 38.8 °F /  3.8 °C 37 °F /  2.8 °C 30.39in /  1029hPa Calm     93% 0.00in /  0mm 0 W/m2
05:09 38.8 °F /  3.8 °C 37 °F /  2.8 °C 30.39in /  1029hPa Calm     93% 0.00in /  0mm 0 W/m2
05:14 39 °F /  3.9 °C 37.2 °F /  2.9 °C 30.39in /  1029hPa Calm     93% 0.00in /  0mm 0 W/m2
05:19 38.8 °F /  3.8 °C 37 °F /  2.8 °C 30.39in /  1029hPa Calm     93% 0.00in /  0mm 0 W/m2
05:24 39 °F /  3.9 °C 37.2 °F /  2.9 °C 30.38in /  1028.7hPa Calm     93% 0.00in /  0mm 0 W/m2
05:29 39.2 °F /  4 °C 37.4 °F /  3 °C 30.38in /  1028.7hPa Calm     93% 0.00in /  0mm 0 W/m2
05:34 39.2 °F /  4 °C 37.4 °F /  3 °C 30.38in /  1028.7hPa Calm     93% 0.00in /  0mm 0 W/m2
05:39 39.2 °F /  4 °C 37.4 °F /  3 °C 30.38in /  1028.7hPa Calm     93% 0.00in /  0mm 0 W/m2
05:44 39.2 °F /  4 °C 37.4 °F /  3 °C 30.39in /  1029hPa Calm     93% 0.00in /  0mm 0 W/m2
05:49 39.3 °F /  4.1 °C 37.5 °F /  3.1 °C 30.39in /  1029hPa Calm     93% 0.00in /  0mm 0 W/m2
05:54 39.3 °F /  4.1 °C 37.6 °F /  3.1 °C 30.38in /  1028.7hPa Calm     93% 0.00in /  0mm 0 W/m2
05:59 39.4 °F /  4.1 °C 37.6 °F /  3.1 °C 30.38in /  1028.7hPa Calm     93% 0.00in /  0mm 0 W/m2
06:04 39.4 °F /  4.1 °C 37.6 °F /  3.1 °C 30.39in /  1029hPa Calm     93% 0.00in /  0mm 0 W/m2
06:09 39.6 °F /  4.2 °C 37.8 °F /  3.2 °C 30.39in /  1029hPa Calm     93% 0.00in /  0mm 0 W/m2
06:14 39.5 °F /  4.2 °C 37.7 °F /  3.2 °C 30.39in /  1029hPa Calm     93% 0.00in /  0mm 0 W/m2
06:19 39.6 °F /  4.2 °C 37.8 °F /  3.2 °C 30.39in /  1029hPa Calm     93% 0.00in /  0mm 0 W/m2
06:24 39.7 °F /  4.3 °C 37.9 °F /  3.3 °C 30.39in /  1029hPa Calm     93% 0.00in /  0mm 0 W/m2
06:29 39.7 °F /  4.3 °C 37.9 °F /  3.3 °C 30.39in /  1029hPa Calm     93% 0.00in /  0mm 0 W/m2
06:34 39.7 °F /  4.3 °C 37.9 °F /  3.3 °C 30.39in /  1029hPa Calm     93% 0.00in /  0mm 0 W/m2
06:39 39.8 °F /  4.3 °C 38 °F /  3.3 °C 30.39in /  1029hPa Calm     93% 0.00in /  0mm 0 W/m2
06:44 39.9 °F /  4.4 °C 38.1 °F /  3.4 °C 30.39in /  1029hPa Calm     93% 0.00in /  0mm 0 W/m2
06:49 39.9 °F /  4.4 °C 38.1 °F /  3.4 °C 30.38in /  1028.7hPa Calm     93% 0.00in /  0mm 0 W/m2
06:54 40 °F /  4.4 °C 38.2 °F /  3.4 °C 30.38in /  1028.7hPa Calm     93% 0.00in /  0mm 0 W/m2
06:59 39.9 °F /  4.4 °C 38.1 °F /  3.4 °C 30.39in /  1029hPa Calm     93% 0.00in /  0mm 0 W/m2
07:04 39.9 °F /  4.4 °C 38.1 °F /  3.4 °C 30.39in /  1029hPa Calm     93% 0.00in /  0mm 0 W/m2
07:09 39.9 °F /  4.4 °C 38.1 °F /  3.4 °C 30.39in /  1029hPa Calm     93% 0.00in /  0mm 0 W/m2
07:14 39.9 °F /  4.4 °C 38.1 °F /  3.4 °C 30.39in /  1029hPa Calm     93% 0.00in /  0mm 0 W/m2
07:19 39.9 °F /  4.4 °C 38.1 °F /  3.4 °C 30.39in /  1029hPa Calm     93% 0.00in /  0mm 0 W/m2
07:24 39.9 °F /  4.4 °C 38.1 °F /  3.4 °C 30.39in /  1029hPa Calm     93% 0.00in /  0mm 0 W/m2
07:29 39.9 °F /  4.4 °C 38.1 °F /  3.4 °C 30.39in /  1029hPa Calm     93% 0.00in /  0mm 0 W/m2
07:34 40 °F /  4.4 °C 38.2 °F /  3.4 °C 30.39in /  1029hPa Calm     93% 0.00in /  0mm 0 W/m2
07:39 40 °F /  4.4 °C 38.2 °F /  3.4 °C 30.39in /  1029hPa Calm     93% 0.00in /  0mm 0 W/m2
07:44 40.1 °F /  4.5 °C 38.3 °F /  3.5 °C 30.39in /  1029hPa Calm     93% 0.00in /  0mm 0 W/m2
07:49 39.9 °F /  4.4 °C 38.1 °F /  3.4 °C 30.39in /  1029hPa Calm     93% 0.00in /  0mm 0 W/m2
07:54 39.9 °F /  4.4 °C 38.1 °F /  3.4 °C 30.39in /  1029hPa Calm     93% 0.00in /  0mm 0 W/m2
07:59 39.9 °F /  4.4 °C 38.1 °F /  3.4 °C 30.39in /  1029hPa West 0.6mph /  1km/h 2mph /  3.2km/h 93% 0.00in /  0mm 0 W/m2
08:04 40.1 °F /  4.5 °C 38.3 °F /  3.5 °C 30.39in /  1029hPa West 1.5mph /  2.4km/h 3mph /  4.8km/h 93% 0.00in /  0mm 5 W/m2
08:09 40.3 °F /  4.6 °C 38.5 °F /  3.6 °C 30.39in /  1029hPa West 1mph /  1.6km/h 3mph /  4.8km/h 93% 0.00in /  0mm 7 W/m2
08:14 40.4 °F /  4.7 °C 38.6 °F /  3.7 °C 30.39in /  1029hPa West 0.4mph /  0.6km/h 2mph /  3.2km/h 93% 0.00in /  0mm 12 W/m2
08:19 40.6 °F /  4.8 °C 38.8 °F /  3.8 °C 30.39in /  1029hPa West 0.4mph /  0.6km/h 2mph /  3.2km/h 93% 0.00in /  0mm 14 W/m2
08:24 40.6 °F /  4.8 °C 38.8 °F /  3.8 °C 30.39in /  1029hPa Calm     93% 0.00in /  0mm 18 W/m2
08:29 40.6 °F /  4.8 °C 38.4 °F /  3.6 °C 30.39in /  1029hPa West 0.4mph /  0.6km/h 1mph /  1.6km/h 92% 0.00in /  0mm 19 W/m2
08:34 40.6 °F /  4.8 °C 38.4 °F /  3.6 °C 30.39in /  1029hPa West 1.2mph /  1.9km/h 2mph /  3.2km/h 92% 0.00in /  0mm 19 W/m2
08:39 40.6 °F /  4.8 °C 38.5 °F /  3.6 °C 30.39in /  1029hPa West 2.3mph /  3.7km/h 4mph /  6.4km/h 92% 0.00in /  0mm 16 W/m2
08:44 40.6 °F /  4.8 °C 38.4 °F /  3.6 °C 30.39in /  1029hPa West 1.4mph /  2.3km/h 3mph /  4.8km/h 91.2% 0.00in /  0mm 19 W/m2
08:49 40.8 °F /  4.9 °C 38.5 °F /  3.6 °C 30.39in /  1029hPa West 1.7mph /  2.7km/h 3mph /  4.8km/h 91% 0.00in /  0mm 23 W/m2
08:54 40.9 °F /  4.9 °C 38.2 °F /  3.4 °C 30.39in /  1029hPa West 0.7mph /  1.1km/h 2mph /  3.2km/h 90% 0.00in /  0mm 26 W/m2
08:59 41 °F /  5 °C 38.1 °F /  3.4 °C 30.39in /  1029hPa West 1.1mph /  1.8km/h 3mph /  4.8km/h 89.6% 0.00in /  0mm 40 W/m2
09:04 41 °F /  5 °C 37.9 °F /  3.3 °C 30.39in /  1029hPa West 2mph /  3.2km/h 3mph /  4.8km/h 89% 0.00in /  0mm 49 W/m2
09:09 41.1 °F /  5.1 °C 37.9 °F /  3.3 °C 30.39in /  1029hPa West 1.1mph /  1.8km/h 3mph /  4.8km/h 88.2% 0.00in /  0mm 56 W/m2
09:14 41.2 °F /  5.1 °C 37.9 °F /  3.3 °C 30.39in /  1029hPa West 0.2mph /  0.3km/h 2mph /  3.2km/h 88% 0.00in /  0mm 56 W/m2
09:19 41.4 °F /  5.2 °C 37.8 °F /  3.2 °C 30.38in /  1028.7hPa West 0.5mph /  0.8km/h 1mph /  1.6km/h 87.2% 0.00in /  0mm 60 W/m2
09:24 41.5 °F /  5.3 °C 37.8 °F /  3.2 °C 30.38in /  1028.7hPa Calm   1mph /  1.6km/h 86.4% 0.00in /  0mm 60 W/m2
09:29 41.7 °F /  5.4 °C 37.8 °F /  3.2 °C 30.38in /  1028.7hPa Calm   1mph /  1.6km/h 86% 0.00in /  0mm 60 W/m2
09:34 41.9 °F /  5.5 °C 37.8 °F /  3.2 °C 30.38in /  1028.7hPa West 1.2mph /  1.9km/h 2mph /  3.2km/h 85% 0.00in /  0mm 58 W/m2
09:39 42 °F /  5.6 °C 37.8 °F /  3.2 °C 30.39in /  1029hPa West 0.4mph /  0.6km/h 2mph /  3.2km/h 84.8% 0.00in /  0mm 58 W/m2
09:44 42.1 °F /  5.6 °C 37.6 °F /  3.1 °C 30.38in /  1028.7hPa Calm   1mph /  1.6km/h 84% 0.00in /  0mm 72 W/m2
09:49 42.3 °F /  5.7 °C 37.8 °F /  3.2 °C 30.38in /  1028.7hPa WSW 0.4mph /  0.6km/h 2mph /  3.2km/h 83.8% 0.00in /  0mm 77 W/m2
09:54 42.5 °F /  5.8 °C 37.7 °F /  3.2 °C 30.38in /  1028.7hPa Calm   2mph /  3.2km/h 82.8% 0.00in /  0mm 72 W/m2
09:59 43 °F /  6.1 °C 37.8 °F /  3.2 °C 30.38in /  1028.7hPa WSW 0.2mph /  0.3km/h 2mph /  3.2km/h 81.6% 0.00in /  0mm 69 W/m2
10:04 43.2 °F /  6.2 °C 37.6 °F /  3.1 °C 30.38in /  1028.7hPa WSW 0.4mph /  0.6km/h 3mph /  4.8km/h 80.6% 0.00in /  0mm 84 W/m2
10:09 43.3 °F /  6.3 °C 37.6 °F /  3.1 °C 30.38in /  1028.7hPa WSW 0.5mph /  0.8km/h 2mph /  3.2km/h 80% 0.00in /  0mm 81 W/m2
10:14 43.5 °F /  6.4 °C 37.6 °F /  3.1 °C 30.38in /  1028.7hPa Calm   1mph /  1.6km/h 79.6% 0.00in /  0mm 91 W/m2
10:19 43.7 °F /  6.5 °C 37.6 °F /  3.1 °C 30.38in /  1028.7hPa WSW 0.4mph /  0.6km/h 2mph /  3.2km/h 79% 0.00in /  0mm 120 W/m2
10:24 44 °F /  6.7 °C 37.7 °F /  3.2 °C 30.38in /  1028.7hPa Calm     78.6% 0.00in /  0mm 134 W/m2
10:29 44.1 °F /  6.7 °C 37.6 °F /  3.1 °C 30.38in /  1028.7hPa Calm     77.8% 0.00in /  0mm 125 W/m2
10:34 44.5 °F /  6.9 °C 37.9 °F /  3.3 °C 30.38in /  1028.7hPa Calm     77.8% 0.00in /  0mm 123 W/m2
10:39 45 °F /  7.2 °C 38.2 °F /  3.4 °C 30.37in /  1028.3hPa Calm     77.2% 0.00in /  0mm 120 W/m2
10:44 45 °F /  7.2 °C 38.1 °F /  3.4 °C 30.37in /  1028.3hPa Calm     76.8% 0.00in /  0mm 113 W/m2
10:49 45 °F /  7.2 °C 37.9 °F /  3.3 °C 30.37in /  1028.3hPa Calm     76.2% 0.00in /  0mm 114 W/m2
10:54 45.1 °F /  7.3 °C 38.2 °F /  3.4 °C 30.37in /  1028.3hPa Calm     77% 0.00in /  0mm 128 W/m2
10:59 45.4 °F /  7.4 °C 38.4 °F /  3.6 °C 30.37in /  1028.3hPa Calm     76.6% 0.00in /  0mm 128 W/m2
11:04 45.8 °F /  7.7 °C 38.6 °F /  3.7 °C 30.36in /  1028hPa WSW 0.8mph /  1.3km/h 4mph /  6.4km/h 76% 0.00in /  0mm 128 W/m2
11:09 46 °F /  7.8 °C 38.4 °F /  3.6 °C 30.36in /  1028hPa SSW 4.3mph /  6.9km/h 8mph /  12.9km/h 74.8% 0.00in /  0mm 123 W/m2
11:14 46.1 °F /  7.8 °C 38.4 °F /  3.6 °C 30.36in /  1028hPa SSW 0.9mph /  1.4km/h 6mph /  9.7km/h 74% 0.00in /  0mm 137 W/m2
11:19 46.2 °F /  7.9 °C 38.3 °F /  3.5 °C 30.35in /  1027.7hPa WSW 5.8mph /  9.3km/h 9mph /  14.5km/h 73.4% 0.00in /  0mm 128 W/m2
11:24 46 °F /  7.8 °C 37.9 °F /  3.3 °C 30.35in /  1027.7hPa WSW 3.4mph /  5.5km/h 7mph /  11.3km/h 73% 0.00in /  0mm 149 W/m2
11:29 46.3 °F /  7.9 °C 38 °F /  3.3 °C 30.35in /  1027.7hPa WSW 4.9mph /  7.9km/h 8mph /  12.9km/h 72.6% 0.00in /  0mm 165 W/m2
11:34 46.6 °F /  8.1 °C 38.1 °F /  3.4 °C 30.35in /  1027.7hPa WSW 2.4mph /  3.9km/h 7mph /  11.3km/h 71.8% 0.00in /  0mm 285 W/m2
11:39 47.2 °F /  8.4 °C 38.2 °F /  3.4 °C 30.34in /  1027.3hPa WSW 3.7mph /  6km/h 7mph /  11.3km/h 71% 0.00in /  0mm 285 W/m2
11:44 47.6 °F /  8.7 °C 38.3 °F /  3.5 °C 30.34in /  1027.3hPa WSW 5.5mph /  8.9km/h 9mph /  14.5km/h 70% 0.00in /  0mm 272 W/m2
11:49 47.8 °F /  8.8 °C 38.5 °F /  3.6 °C 30.34in /  1027.3hPa WSW 5.3mph /  8.5km/h 9mph /  14.5km/h 69.8% 0.00in /  0mm 274 W/m2
11:54 48.2 °F /  9 °C 38.4 °F /  3.6 °C 30.34in /  1027.3hPa WSW 6.9mph /  11.1km/h 11mph /  17.7km/h 68.8% 0.00in /  0mm 269 W/m2
11:59 48.4 °F /  9.1 °C 38.8 °F /  3.8 °C 30.33in /  1027hPa WSW 5.1mph /  8.2km/h 11mph /  17.7km/h 69.6% 0.00in /  0mm 251 W/m2
12:04 48.4 °F /  9.1 °C 38.6 °F /  3.7 °C 30.33in /  1027hPa WSW 4.5mph /  7.2km/h 8mph /  12.9km/h 68.8% 0.00in /  0mm 188 W/m2
12:09 48.5 °F /  9.2 °C 38.3 °F /  3.5 °C 30.33in /  1027hPa WSW 4.4mph /  7.1km/h 11mph /  17.7km/h 67.8% 0.00in /  0mm 206 W/m2
12:14 48.5 °F /  9.2 °C 37.4 °F /  3 °C 30.32in /  1026.6hPa SW 4.8mph /  7.7km/h 11mph /  17.7km/h 65.4% 0.00in /  0mm 207 W/m2
12:19 48.5 °F /  9.2 °C 36.5 °F /  2.5 °C 30.32in /  1026.6hPa SW 4.8mph /  7.7km/h 9mph /  14.5km/h 63.4% 0.00in /  0mm 206 W/m2
12:24 48.5 °F /  9.2 °C 36.7 °F /  2.6 °C 30.32in /  1026.6hPa WSW 3.5mph /  5.6km/h 8mph /  12.9km/h 63.8% 0.00in /  0mm 193 W/m2
12:29 48.6 °F /  9.2 °C 36.7 °F /  2.6 °C 30.32in /  1026.6hPa WSW 3.6mph /  5.8km/h 8mph /  12.9km/h 63.6% 0.00in /  0mm 197 W/m2
12:33 48.6 °F /  9.2 °C 37 °F /  2.8 °C 30.32in /  1026.6hPa WSW 4.8mph /  7.7km/h 8mph /  12.9km/h 64.3% 0.00in /  0mm 149 W/m2
12:39 48.6 °F /  9.2 °C 36.9 °F /  2.7 °C 30.31in /  1026.3hPa WSW 3.6mph /  5.8km/h 6mph /  9.7km/h 64% 0.00in /  0mm 174 W/m2
12:44 48.7 °F /  9.3 °C 37.1 °F /  2.8 °C 30.31in /  1026.3hPa WSW 2.2mph /  3.5km/h 7mph /  11.3km/h 64.2% 0.00in /  0mm 195 W/m2
12:49 49.4 °F /  9.7 °C 37.7 °F /  3.2 °C 30.31in /  1026.3hPa WSW 2.2mph /  3.5km/h 5mph /  8km/h 64% 0.00in /  0mm 232 W/m2
12:54 49.6 °F /  9.8 °C 37.9 °F /  3.3 °C 30.30in /  1026hPa WSW 6mph /  9.7km/h 12mph /  19.3km/h 64% 0.00in /  0mm 230 W/m2
12:59 49.5 °F /  9.7 °C 37.7 °F /  3.2 °C 30.30in /  1026hPa SW 5.9mph /  9.5km/h 15mph /  24.1km/h 63.8% 0.00in /  0mm 216 W/m2
13:04 49.5 °F /  9.7 °C 38 °F /  3.3 °C 30.30in /  1026hPa SW 4.4mph /  7.1km/h 7mph /  11.3km/h 64.4% 0.00in /  0mm 202 W/m2
13:09 49.6 °F /  9.8 °C 38.3 °F /  3.5 °C 30.30in /  1026hPa SSW 2.7mph /  4.3km/h 6mph /  9.7km/h 65% 0.00in /  0mm 193 W/m2
13:14 49.8 °F /  9.9 °C 38.5 °F /  3.6 °C 30.29in /  1025.6hPa SW 3.5mph /  5.6km/h 7mph /  11.3km/h 65% 0.00in /  0mm 185 W/m2
13:19 49.4 °F /  9.7 °C 38.3 °F /  3.5 °C 30.29in /  1025.6hPa SW 2.9mph /  4.7km/h 7mph /  11.3km/h 65.4% 0.00in /  0mm 188 W/m2
13:24 49.5 °F /  9.7 °C 38.9 °F /  3.8 °C 30.29in /  1025.6hPa SW 2mph /  3.2km/h 7mph /  11.3km/h 66.6% 0.00in /  0mm 185 W/m2
13:29 49.1 °F /  9.5 °C 38.8 °F /  3.8 °C 30.29in /  1025.6hPa WSW 5.6mph /  9km/h 8mph /  12.9km/h 67.2% 0.00in /  0mm 163 W/m2
13:34 48.7 °F /  9.3 °C 39.1 °F /  3.9 °C 30.28in /  1025.3hPa SW 6mph /  9.7km/h 10mph /  16.1km/h 69.4% 0.00in /  0mm 162 W/m2
13:39 48.7 °F /  9.3 °C 39.7 °F /  4.3 °C 30.28in /  1025.3hPa SW 1.4mph /  2.3km/h 6mph /  9.7km/h 71% 0.00in /  0mm 156 W/m2
13:44 49.5 °F /  9.7 °C 40.5 °F /  4.7 °C 30.28in /  1025.3hPa SW 3.7mph /  6km/h 9mph /  14.5km/h 71% 0.00in /  0mm 160 W/m2
13:49 49.5 °F /  9.7 °C 40.5 °F /  4.7 °C 30.28in /  1025.3hPa SW 3.2mph /  5.1km/h 9mph /  14.5km/h 71% 0.00in /  0mm 178 W/m2
13:54 49.3 °F /  9.6 °C 40.4 °F /  4.7 °C 30.29in /  1025.6hPa SSW 4.1mph /  6.6km/h 9mph /  14.5km/h 71.6% 0.00in /  0mm 188 W/m2
13:59 49.5 °F /  9.7 °C 40.8 °F /  4.9 °C 30.28in /  1025.3hPa SSW 4.5mph /  7.2km/h 7mph /  11.3km/h 72% 0.00in /  0mm 185 W/m2
14:04 49.6 °F /  9.8 °C 41.1 °F /  5.1 °C 30.28in /  1025.3hPa WSW 3.6mph /  5.8km/h 8mph /  12.9km/h 72.2% 0.00in /  0mm 171 W/m2
14:09 49.6 °F /  9.8 °C 41.2 °F /  5.1 °C 30.28in /  1025.3hPa SW 5.1mph /  8.2km/h 8mph /  12.9km/h 72.8% 0.00in /  0mm 163 W/m2
14:14 49.3 °F /  9.6 °C 41 °F /  5 °C 30.28in /  1025.3hPa SW 4.9mph /  7.9km/h 8mph /  12.9km/h 73% 0.00in /  0mm 163 W/m2
14:19 49.3 °F /  9.6 °C 41 °F /  5 °C 30.27in /  1024.9hPa SW 4.6mph /  7.4km/h 8mph /  12.9km/h 73.2% 0.00in /  0mm 123 W/m2
14:24 48.9 °F /  9.4 °C 40.8 °F /  4.9 °C 30.27in /  1024.9hPa SSW 3.8mph /  6.1km/h 7mph /  11.3km/h 73.4% 0.00in /  0mm 79 W/m2
14:29 48.5 °F /  9.2 °C 40.2 °F /  4.6 °C 30.27in /  1024.9hPa SSW 4.2mph /  6.8km/h 9mph /  14.5km/h 73% 0.00in /  0mm 67 W/m2
14:34 48.3 °F /  9.1 °C 40.1 °F /  4.5 °C 30.27in /  1024.9hPa SW 4.8mph /  7.7km/h 9mph /  14.5km/h 73.2% 0.00in /  0mm 70 W/m2
14:39 48.4 °F /  9.1 °C 40.5 °F /  4.7 °C 30.27in /  1024.9hPa SW 2.5mph /  4km/h 7mph /  11.3km/h 74% 0.00in /  0mm 100 W/m2
14:44 48.8 °F /  9.3 °C 40.9 °F /  4.9 °C 30.27in /  1024.9hPa SW 0.5mph /  0.8km/h 4mph /  6.4km/h 74% 0.00in /  0mm 95 W/m2
14:49 49.5 °F /  9.7 °C 41.5 °F /  5.3 °C 30.27in /  1024.9hPa Calm   3mph /  4.8km/h 73.8% 0.00in /  0mm 88 W/m2
14:54 49.7 °F /  9.8 °C 41.2 °F /  5.1 °C 30.27in /  1024.9hPa SW 2.4mph /  3.9km/h 6mph /  9.7km/h 72.4% 0.00in /  0mm 79 W/m2
14:59 49.5 °F /  9.7 °C 41.1 °F /  5.1 °C 30.27in /  1024.9hPa SW 1.9mph /  3.1km/h 5mph /  8km/h 72.8% 0.00in /  0mm 69 W/m2
15:04 49.3 °F /  9.6 °C 41.1 °F /  5.1 °C 30.27in /  1024.9hPa SW 2.5mph /  4km/h 6mph /  9.7km/h 73% 0.00in /  0mm 54 W/m2
15:09 49.3 °F /  9.6 °C 41.2 °F /  5.1 °C 30.27in /  1024.9hPa SW 4.2mph /  6.8km/h 7mph /  11.3km/h 73.6% 0.00in /  0mm 51 W/m2
15:14 49.2 °F /  9.6 °C 40.9 °F /  4.9 °C 30.27in /  1024.9hPa SW 3.4mph /  5.5km/h 8mph /  12.9km/h 73% 0.00in /  0mm 47 W/m2
15:19 49.1 °F /  9.5 °C 40.8 °F /  4.9 °C 30.27in /  1024.9hPa SW 1.6mph /  2.6km/h 6mph /  9.7km/h 73% 0.00in /  0mm 42 W/m2
15:24 49.1 °F /  9.5 °C 40.8 °F /  4.9 °C 30.27in /  1024.9hPa SW 3mph /  4.8km/h 6mph /  9.7km/h 73% 0.00in /  0mm 37 W/m2
15:29 49 °F /  9.4 °C 41.1 °F /  5.1 °C 30.27in /  1024.9hPa SW 3mph /  4.8km/h 6mph /  9.7km/h 74% 0.00in /  0mm 32 W/m2
15:34 48.9 °F /  9.4 °C 41 °F /  5 °C 30.27in /  1024.9hPa SW 3.3mph /  5.3km/h 6mph /  9.7km/h 74% 0.00in /  0mm 23 W/m2
15:39 48.7 °F /  9.3 °C 40.8 °F /  4.9 °C 30.27in /  1024.9hPa SW 3mph /  4.8km/h 6mph /  9.7km/h 74% 0.00in /  0mm 21 W/m2
15:44 48.5 °F /  9.2 °C 40.5 °F /  4.7 °C 30.27in /  1024.9hPa SW 1.7mph /  2.7km/h 5mph /  8km/h 74% 0.00in /  0mm 16 W/m2
15:49 48.1 °F /  8.9 °C 40.2 °F /  4.6 °C 30.27in /  1024.9hPa SW 2mph /  3.2km/h 6mph /  9.7km/h 74% 0.00in /  0mm 12 W/m2
15:54 47.8 °F /  8.8 °C 40.1 °F /  4.5 °C 30.27in /  1024.9hPa SW 1.6mph /  2.6km/h 6mph /  9.7km/h 74.6% 0.00in /  0mm 11 W/m2
15:59 47.7 °F /  8.7 °C 40.1 °F /  4.5 °C 30.27in /  1024.9hPa SW 0.6mph /  1km/h 4mph /  6.4km/h 75% 0.00in /  0mm 9 W/m2
16:04 47.7 °F /  8.7 °C 40.1 °F /  4.5 °C 30.27in /  1024.9hPa Calm   2mph /  3.2km/h 75% 0.00in /  0mm 7 W/m2
16:08 47.6 °F /  8.7 °C 40 °F /  4.4 °C 30.27in /  1024.9hPa Calm   1mph /  1.6km/h 75% 0.00in /  0mm 0 W/m2
16:14 47.5 °F /  8.6 °C 40.2 °F /  4.6 °C 30.27in /  1024.9hPa Calm     75.8% 0.00in /  0mm 0 W/m2
16:19 47.2 °F /  8.4 °C 40 °F /  4.4 °C 30.27in /  1024.9hPa Calm     76% 0.00in /  0mm 0 W/m2
16:24 47.2 °F /  8.4 °C 40 °F /  4.4 °C 30.27in /  1024.9hPa Calm     76% 0.00in /  0mm 0 W/m2
16:29 47.1 °F /  8.4 °C 39.9 °F /  4.4 °C 30.27in /  1024.9hPa Calm     76% 0.00in /  0mm 0 W/m2
16:34 46.8 °F /  8.2 °C 39.6 °F /  4.2 °C 30.27in /  1024.9hPa Calm     76% 0.00in /  0mm 0 W/m2
16:39 46.4 °F /  8 °C 39.5 °F /  4.2 °C 30.27in /  1024.9hPa Calm     77% 0.00in /  0mm 0 W/m2
16:44 45.8 °F /  7.7 °C 38.9 °F /  3.8 °C 30.26in /  1024.6hPa Calm     77% 0.00in /  0mm 0 W/m2
16:49 45.1 °F /  7.3 °C 38.2 °F /  3.4 °C 30.26in /  1024.6hPa Calm     77% 0.00in /  0mm 0 W/m2
16:54 44.6 °F /  7 °C 37.8 °F /  3.2 °C 30.26in /  1024.6hPa Calm     77.2% 0.00in /  0mm 0 W/m2
16:59 44.1 °F /  6.7 °C 37.7 °F /  3.2 °C 30.26in /  1024.6hPa Calm     78% 0.00in /  0mm 0 W/m2
17:04 43.8 °F /  6.6 °C 37.3 °F /  2.9 °C 30.26in /  1024.6hPa Calm     78% 0.00in /  0mm 0 W/m2
17:09 43.4 °F /  6.3 °C 36.9 °F /  2.7 °C 30.26in /  1024.6hPa Calm     78% 0.00in /  0mm 0 W/m2
17:14 43.1 °F /  6.2 °C 36.7 °F /  2.6 °C 30.25in /  1024.3hPa Calm     78% 0.00in /  0mm 0 W/m2
17:19 42.5 °F /  5.8 °C 36.3 °F /  2.4 °C 30.25in /  1024.3hPa Calm     78.8% 0.00in /  0mm 0 W/m2
17:24 42.2 °F /  5.7 °C 36.4 °F /  2.4 °C 30.26in /  1024.6hPa Calm     79.8% 0.00in /  0mm 0 W/m2
17:29 41.9 °F /  5.5 °C 36.5 °F /  2.5 °C 30.26in /  1024.6hPa SW 0.8mph /  1.3km/h 2mph /  3.2km/h 81% 0.00in /  0mm 0 W/m2
17:34 41.7 °F /  5.4 °C 36.7 °F /  2.6 °C 30.26in /  1024.6hPa Calm   1mph /  1.6km/h 82% 0.00in /  0mm 0 W/m2
17:39 41.5 °F /  5.3 °C 36.5 °F /  2.5 °C 30.26in /  1024.6hPa Calm   1mph /  1.6km/h 82% 0.00in /  0mm 0 W/m2
17:44 41.5 °F /  5.3 °C 36.7 °F /  2.6 °C 30.26in /  1024.6hPa Calm     83% 0.00in /  0mm 0 W/m2
17:49 41.4 °F /  5.2 °C 36.5 °F /  2.5 °C 30.26in /  1024.6hPa SW 0.2mph /  0.3km/h 1mph /  1.6km/h 83% 0.00in /  0mm 0 W/m2
17:54 41.4 °F /  5.2 °C 36.7 °F /  2.6 °C 30.25in /  1024.3hPa Calm     83.4% 0.00in /  0mm 0 W/m2
17:59 41.2 °F /  5.1 °C 36.7 °F /  2.6 °C 30.26in /  1024.6hPa Calm     84% 0.00in /  0mm 0 W/m2
18:04 41.1 °F /  5.1 °C 36.6 °F /  2.6 °C 30.25in /  1024.3hPa Calm     84% 0.00in /  0mm 0 W/m2
18:09 41.2 °F /  5.1 °C 36.7 °F /  2.6 °C 30.25in /  1024.3hPa Calm     84% 0.00in /  0mm 0 W/m2
18:14 41.2 °F /  5.1 °C 36.8 °F /  2.7 °C 30.25in /  1024.3hPa Calm     84.4% 0.00in /  0mm 0 W/m2
18:19 41.1 °F /  5.1 °C 36.9 °F /  2.7 °C 30.25in /  1024.3hPa Calm     85% 0.00in /  0mm 0 W/m2
18:24 41.1 °F /  5.1 °C 37 °F /  2.8 °C 30.25in /  1024.3hPa Calm     85% 0.00in /  0mm 0 W/m2
18:29 40.9 °F /  4.9 °C 36.8 °F /  2.7 °C 30.25in /  1024.3hPa Calm     85% 0.00in /  0mm 0 W/m2
18:34 40.8 °F /  4.9 °C 36.7 °F /  2.6 °C 30.25in /  1024.3hPa Calm     85% 0.00in /  0mm 0 W/m2
18:39 40.6 °F /  4.8 °C 36.5 °F /  2.5 °C 30.25in /  1024.3hPa Calm     85% 0.00in /  0mm 0 W/m2
18:44 40.5 °F /  4.7 °C 36.5 °F /  2.5 °C 30.25in /  1024.3hPa Calm     85.2% 0.00in /  0mm 0 W/m2
18:49 40.5 °F /  4.7 °C 36.7 °F /  2.6 °C 30.25in /  1024.3hPa Calm     86% 0.00in /  0mm 0 W/m2
18:54 40.5 °F /  4.7 °C 36.7 °F /  2.6 °C 30.25in /  1024.3hPa Calm     86% 0.00in /  0mm 0 W/m2
18:59 40.5 °F /  4.7 °C 36.7 °F /  2.6 °C 30.25in /  1024.3hPa Calm     86% 0.00in /  0mm 0 W/m2
19:04 40.6 °F /  4.8 °C 36.8 °F /  2.7 °C 30.25in /  1024.3hPa Calm     86% 0.00in /  0mm 0 W/m2
19:09 40.4 °F /  4.7 °C 36.6 °F /  2.6 °C 30.24in /  1023.9hPa Calm     86% 0.00in /  0mm 0 W/m2
19:14 40.3 °F /  4.6 °C 36.5 °F /  2.5 °C 30.24in /  1023.9hPa Calm     86% 0.00in /  0mm 0 W/m2
19:19 40.3 °F /  4.6 °C 36.7 °F /  2.6 °C 30.24in /  1023.9hPa Calm     87% 0.00in /  0mm 0 W/m2
19:24 40.3 °F /  4.6 °C 36.7 °F /  2.6 °C 30.24in /  1023.9hPa Calm     87% 0.00in /  0mm 0 W/m2
19:29 40.3 °F /  4.6 °C 36.7 °F /  2.6 °C 30.24in /  1023.9hPa Calm     87% 0.00in /  0mm 0 W/m2
19:34 40.3 °F /  4.6 °C 36.7 °F /  2.6 °C 30.24in /  1023.9hPa Calm     87% 0.00in /  0mm 0 W/m2
19:39 40.3 °F /  4.6 °C 36.7 °F /  2.6 °C 30.24in /  1023.9hPa Calm     87% 0.00in /  0mm 0 W/m2
19:44 40 °F /  4.4 °C 36.4 °F /  2.4 °C 30.24in /  1023.9hPa Calm     87% 0.00in /  0mm 0 W/m2
19:49 39.7 °F /  4.3 °C 36.1 °F /  2.3 °C 30.24in /  1023.9hPa Calm     87% 0.00in /  0mm 0 W/m2
19:54 39.7 °F /  4.3 °C 36.2 °F /  2.3 °C 30.24in /  1023.9hPa Calm     87.2% 0.00in /  0mm 0 W/m2
19:59 39.6 °F /  4.2 °C 36.3 °F /  2.4 °C 30.23in /  1023.6hPa Calm     88% 0.00in /  0mm 0 W/m2
20:04 39.3 °F /  4.1 °C 35.9 °F /  2.2 °C 30.23in /  1023.6hPa Calm     87.5% 0.00in /  0mm 0 W/m2
20:09 39.2 °F /  4 °C 36 °F /  2.2 °C 30.23in /  1023.6hPa Calm     88% 0.00in /  0mm 0 W/m2
20:14 39.1 °F /  3.9 °C 35.9 °F /  2.2 °C 30.23in /  1023.6hPa Calm     88% 0.00in /  0mm 0 W/m2
20:19 38.8 °F /  3.8 °C 35.6 °F /  2 °C 30.23in /  1023.6hPa Calm     88% 0.00in /  0mm 0 W/m2
20:24 38.7 °F /  3.7 °C 35.4 °F /  1.9 °C 30.23in /  1023.6hPa Calm     88% 0.00in /  0mm 0 W/m2
20:29 38.5 °F /  3.6 °C 35.2 °F /  1.8 °C 30.23in /  1023.6hPa Calm     88% 0.00in /  0mm 0 W/m2
20:34 38.5 °F /  3.6 °C 35.2 °F /  1.8 °C 30.23in /  1023.6hPa Calm     88% 0.00in /  0mm 0 W/m2
20:39 38.1 °F /  3.4 °C 34.9 °F /  1.6 °C 30.22in /  1023.2hPa Calm     88% 0.00in /  0mm 0 W/m2
20:44 38.1 °F /  3.4 °C 34.9 °F /  1.6 °C 30.22in /  1023.2hPa Calm     88% 0.00in /  0mm 0 W/m2
20:49 37.9 °F /  3.3 °C 35.1 °F /  1.7 °C 30.22in /  1023.2hPa Calm     89% 0.00in /  0mm 0 W/m2
20:54 37.8 °F /  3.2 °C 34.9 °F /  1.6 °C 30.22in /  1023.2hPa Calm     88.8% 0.00in /  0mm 0 W/m2
20:59 37.6 °F /  3.1 °C 34.7 °F /  1.5 °C 30.22in /  1023.2hPa Calm     89% 0.00in /  0mm 0 W/m2
21:04 37.6 °F /  3.1 °C 34.7 °F /  1.5 °C 30.22in /  1023.2hPa Calm     89% 0.00in /  0mm 0 W/m2
21:09 37.4 °F /  3 °C 34.5 °F /  1.4 °C 30.23in /  1023.6hPa Calm     89% 0.00in /  0mm 0 W/m2
21:14 37.5 °F /  3.1 °C 34.6 °F /  1.4 °C 30.23in /  1023.6hPa Calm     89% 0.00in /  0mm 0 W/m2
21:19 37.3 °F /  2.9 °C 34.4 °F /  1.3 °C 30.22in /  1023.2hPa Calm     89% 0.00in /  0mm 0 W/m2
21:23 37 °F /  2.8 °C 34.2 °F /  1.2 °C 30.22in /  1023.2hPa Calm     89% 0.00in /  0mm 0 W/m2
21:29 37 °F /  2.8 °C 34.2 °F /  1.2 °C 30.22in /  1023.2hPa Calm     89% 0.00in /  0mm 0 W/m2
21:34 36.9 °F /  2.7 °C 34 °F /  1.1 °C 30.22in /  1023.2hPa Calm     89% 0.00in /  0mm 0 W/m2
21:39 36.8 °F /  2.7 °C 33.9 °F /  1.1 °C 30.22in /  1023.2hPa Calm     89% 0.00in /  0mm 0 W/m2
21:43 36.8 °F /  2.7 °C 33.9 °F /  1.1 °C 30.22in /  1023.2hPa Calm     89% 0.00in /  0mm 0 W/m2
21:49 36.7 °F /  2.6 °C 34 °F /  1.1 °C 30.22in /  1023.2hPa Calm     89.8% 0.00in /  0mm 0 W/m2
21:54 36.7 °F /  2.6 °C 34 °F /  1.1 °C 30.22in /  1023.2hPa Calm     90% 0.00in /  0mm 0 W/m2
21:59 36.7 °F /  2.6 °C 34 °F /  1.1 °C 30.22in /  1023.2hPa Calm     90% 0.00in /  0mm 0 W/m2
22:04 36.7 °F /  2.6 °C 34 °F /  1.1 °C 30.22in /  1023.2hPa Calm     90% 0.00in /  0mm 0 W/m2
22:09 36.4 °F /  2.4 °C 33.7 °F /  0.9 °C 30.22in /  1023.2hPa Calm     90% 0.00in /  0mm 0 W/m2
22:14 36.2 °F /  2.3 °C 33.5 °F /  0.8 °C 30.21in /  1022.9hPa Calm     90% 0.00in /  0mm 0 W/m2
22:19 36.1 °F /  2.3 °C 33.4 °F /  0.8 °C 30.22in /  1023.2hPa Calm     90% 0.00in /  0mm 0 W/m2
22:24 36.1 °F /  2.3 °C 33.4 °F /  0.8 °C 30.21in /  1022.9hPa Calm     90% 0.00in /  0mm 0 W/m2
22:29 36.1 °F /  2.3 °C 33.4 °F /  0.8 °C 30.21in /  1022.9hPa Calm     90% 0.00in /  0mm 0 W/m2
22:34 36 °F /  2.2 °C 33.3 °F /  0.7 °C 30.21in /  1022.9hPa Calm     90% 0.00in /  0mm 0 W/m2
22:39 36 °F /  2.2 °C 33.3 °F /  0.7 °C 30.21in /  1022.9hPa Calm     90% 0.00in /  0mm 0 W/m2
22:44 35.8 °F /  2.1 °C 33.1 °F /  0.6 °C 30.21in /  1022.9hPa Calm     90% 0.00in /  0mm 0 W/m2
22:49 35.5 °F /  1.9 °C 32.8 °F /  0.4 °C 30.21in /  1022.9hPa Calm     90% 0.00in /  0mm 0 W/m2
22:54 35.3 °F /  1.8 °C 32.9 °F /  0.5 °C 30.21in /  1022.9hPa Calm     90.6% 0.00in /  0mm 0 W/m2
22:59 35.2 °F /  1.8 °C 32.5 °F /  0.3 °C 30.21in /  1022.9hPa Calm     90% 0.00in /  0mm 0 W/m2
23:04 35.4 °F /  1.9 °C 33.1 °F /  0.6 °C 30.21in /  1022.9hPa Calm     91% 0.00in /  0mm 0 W/m2
23:09 35.4 °F /  1.9 °C 33.1 °F /  0.6 °C 30.21in /  1022.9hPa Calm     91% 0.00in /  0mm 0 W/m2
23:14 35.4 °F /  1.9 °C 33.1 °F /  0.6 °C 30.21in /  1022.9hPa Calm     91% 0.00in /  0mm 0 W/m2
23:19 35.2 °F /  1.8 °C 32.9 °F /  0.5 °C 30.21in /  1022.9hPa Calm     91% 0.00in /  0mm 0 W/m2
23:24 35 °F /  1.7 °C 32.6 °F /  0.3 °C 30.21in /  1022.9hPa Calm     91% 0.00in /  0mm 0 W/m2
23:29 34.9 °F /  1.6 °C 32.5 °F /  0.3 °C 30.21in /  1022.9hPa Calm     91% 0.00in /  0mm 0 W/m2
23:34 34.9 °F /  1.6 °C 32.5 °F /  0.3 °C 30.21in /  1022.9hPa Calm     91% 0.00in /  0mm 0 W/m2
23:39 34.9 °F /  1.6 °C 32.5 °F /  0.3 °C 30.21in /  1022.9hPa Calm     91% 0.00in /  0mm 0 W/m2
23:44 34.9 °F /  1.6 °C 32.5 °F /  0.3 °C 30.20in /  1022.6hPa Calm     91% 0.00in /  0mm 0 W/m2
23:49 34.8 °F /  1.6 °C 32.4 °F /  0.2 °C 30.20in /  1022.6hPa Calm     91% 0.00in /  0mm 0 W/m2
23:54 34.6 °F /  1.4 °C 32.3 °F /  0.2 °C 30.20in /  1022.6hPa Calm     91% 0.00in /  0mm 0 W/m2
23:59 34.5 °F /  1.4 °C 32.2 °F /  0.1 °C 30.20in /  1022.6hPa Calm     91% 0.00in /  0mm 0 W/m2
Bath Spa Weather
Compliments of Weather Underground - 2 mb